Time;durP1;ratioP1;P1;durP2;ratioP2;P2;SDS_P1;SDS_P2;PMS_P1;PMS_P2;Temp;Humidity;BMP_temperature;BMP_pressure;BME280_temperature;BME280_humidity;BME280_pressure;Samples;Min_cycle;Max_cycle;Signal;HPM_P1;HPM_P2
2021/12/11 00:01:04;;;;;;;39.03;16.20;;;-2.00;99.90;;;;;;5001843;28;20124;-65
2021/12/11 00:03:38;;;;;;;33.00;15.32;;;-2.00;99.90;;;;;;5024678;28;20037;-65
2021/12/11 00:06:09;;;;;;;27.02;13.85;;;-2.10;99.90;;;;;;5047802;28;20047;-65
2021/12/11 00:08:35;;;;;;;34.80;15.15;;;-2.20;99.90;;;;;;5031371;28;20421;-65
2021/12/11 00:11:12;;;;;;;33.97;15.25;;;-2.20;99.90;;;;;;5012642;28;20065;-64
2021/12/11 00:13:40;;;;;;;31.45;14.82;;;-2.20;99.90;;;;;;5045308;28;20048;-65
2021/12/11 00:16:10;;;;;;;35.20;14.75;;;-2.20;99.90;;;;;;5044913;28;20048;-65
2021/12/11 00:18:36;;;;;;;29.50;14.20;;;-2.20;99.90;;;;;;5030866;28;20041;-64
2021/12/11 00:21:03;;;;;;;34.97;14.27;;;-2.30;99.90;;;;;;5048765;28;20056;-65
2021/12/11 00:23:35;;;;;;;28.58;14.32;;;-2.20;99.90;;;;;;5047461;28;20080;-65
2021/12/11 00:26:02;;;;;;;35.28;14.60;;;-2.30;99.90;;;;;;5046145;28;20213;-64
2021/12/11 00:28:28;;;;;;;34.35;13.18;;;-2.30;99.90;;;;;;5043969;28;20071;-65
2021/12/11 00:30:54;;;;;;;27.23;14.02;;;-2.30;99.90;;;;;;5029587;28;20044;-65
2021/12/11 00:33:32;;;;;;;29.92;13.90;;;-2.30;99.90;;;;;;5011032;28;20033;-65
2021/12/11 00:35:58;;;;;;;33.65;15.43;;;-2.30;99.90;;;;;;5024148;28;20029;-65
2021/12/11 00:38:32;;;;;;;36.42;15.02;;;-2.20;99.90;;;;;;5048302;28;20112;-65
2021/12/11 00:40:58;;;;;;;29.27;15.02;;;-2.20;99.90;;;;;;5029824;28;20552;-65
2021/12/11 00:43:29;;;;;;;33.47;15.75;;;-2.10;99.90;;;;;;5042062;28;20040;-65
2021/12/11 00:45:57;;;;;;;32.20;14.43;;;-2.10;99.90;;;;;;5041565;28;20041;-65
2021/12/11 00:48:26;;;;;;;30.73;14.20;;;-2.10;99.90;;;;;;5031277;28;20073;-65
2021/12/11 00:51:02;;;;;;;34.53;14.90;;;-2.10;99.90;;;;;;5028812;28;20041;-65
2021/12/11 00:53:32;;;;;;;29.73;14.27;;;-2.20;99.90;;;;;;5029852;28;20044;-65
2021/12/11 00:56:03;;;;;;;28.40;14.40;;;-2.10;99.90;;;;;;5047182;28;20033;-65
2021/12/11 00:58:34;;;;;;;36.92;15.20;;;-2.20;99.90;;;;;;5026805;28;20047;-65
2021/12/11 01:01:05;;;;;;;29.08;14.00;;;-2.30;99.90;;;;;;5026752;28;20092;-65
2021/12/11 01:03:48;;;;;;;28.25;13.55;;;-2.30;99.90;;;;;;5030373;28;20047;-65
2021/12/11 01:06:19;;;;;;;32.42;13.73;;;-2.30;99.90;;;;;;5044041;28;20041;-65
2021/12/11 01:08:57;;;;;;;29.25;14.15;;;-2.30;99.90;;;;;;5028216;28;20439;-65
2021/12/11 01:11:28;;;;;;;29.92;13.73;;;-2.30;99.90;;;;;;5048057;28;20045;-64
2021/12/11 01:14:13;;;;;;;30.02;12.93;;;-2.30;99.90;;;;;;5045591;28;20045;-65
2021/12/11 01:16:41;;;;;;;29.80;13.18;;;-2.30;99.90;;;;;;5043046;28;20052;-65
2021/12/11 01:19:07;;;;;;;29.98;13.60;;;-2.30;99.90;;;;;;5050559;28;20430;-65
2021/12/11 01:24:45;;;;;;;24.58;12.10;;;-2.40;99.90;;;;;;5031120;28;20353;-65
2021/12/11 01:27:14;;;;;;;29.38;12.65;;;-2.40;99.90;;;;;;5032060;28;20052;-65
2021/12/11 01:29:41;;;;;;;27.35;12.02;;;-2.40;99.90;;;;;;5030913;28;20041;-65
2021/12/11 01:32:07;;;;;;;29.17;14.07;;;-2.50;99.90;;;;;;5049782;28;20037;-65
2021/12/11 01:34:34;;;;;;;28.55;13.05;;;-2.40;99.90;;;;;;5028508;28;20128;-65
2021/12/11 01:37:01;;;;;;;25.42;11.68;;;-2.40;99.90;;;;;;5032915;28;20057;-65
2021/12/11 01:39:30;;;;;;;27.52;12.70;;;-2.40;99.90;;;;;;5031782;28;20036;-64
2021/12/11 01:41:56;;;;;;;20.30;11.18;;;-2.40;99.90;;;;;;5031247;28;20059;-65
2021/12/11 01:44:32;;;;;;;24.55;12.63;;;-2.50;99.90;;;;;;5049116;28;20381;-65
2021/12/11 01:47:12;;;;;;;27.65;13.50;;;-2.50;99.90;;;;;;5027883;28;20045;-64
2021/12/11 01:49:41;;;;;;;29.80;13.45;;;-2.50;99.90;;;;;;5030304;28;20112;-64
2021/12/11 01:52:35;;;;;;;26.13;13.03;;;-2.50;99.90;;;;;;5031472;28;20045;-65
2021/12/11 01:55:08;;;;;;;24.52;11.75;;;-2.60;99.90;;;;;;5032373;28;20303;-65
2021/12/11 01:57:34;;;;;;;26.75;12.57;;;-2.60;99.90;;;;;;5030068;28;20131;-65
2021/12/11 02:00:09;;;;;;;23.00;11.40;;;-2.70;99.90;;;;;;5031529;28;20581;-66
2021/12/11 02:02:45;;;;;;;29.42;13.43;;;-2.70;99.90;;;;;;5049492;28;20174;-64
2021/12/11 02:05:14;;;;;;;29.83;14.25;;;-2.70;99.90;;;;;;5051850;28;20071;-65
2021/12/11 02:07:48;;;;;;;27.95;13.48;;;-2.70;99.90;;;;;;5031051;28;20488;-64
2021/12/11 02:10:27;;;;;;;25.52;11.93;;;-2.70;99.90;;;;;;5051735;28;20454;-64
2021/12/11 02:12:54;;;;;;;25.55;12.52;;;-2.70;99.90;;;;;;5020627;28;20045;-65
2021/12/11 02:15:32;;;;;;;28.17;13.70;;;-2.70;99.90;;;;;;5030878;28;20502;-64
2021/12/11 02:18:12;;;;;;;30.95;13.75;;;-2.80;99.90;;;;;;5030773;28;20045;-64
2021/12/11 02:20:51;;;;;;;29.63;14.10;;;-2.80;99.90;;;;;;5044861;28;20123;-65
2021/12/11 02:23:17;;;;;;;36.03;15.23;;;-2.80;99.90;;;;;;5050948;28;20110;-64
2021/12/11 02:25:47;;;;;;;31.63;14.45;;;-2.70;99.90;;;;;;5031925;28;20060;-65
2021/12/11 02:28:16;;;;;;;;;;;-2.60;99.90;;;;;;5045704;28;20131;-65
2021/12/11 02:30:53;;;;;;;31.45;14.70;;;-2.50;99.90;;;;;;5028173;28;20015;-64
2021/12/11 02:33:29;;;;;;;35.88;15.25;;;-2.40;99.90;;;;;;5050720;28;20120;-65
2021/12/11 02:36:09;;;;;;;35.88;16.40;;;-2.40;99.90;;;;;;5031083;28;20068;-64
2021/12/11 02:39:10;;;;;;;36.35;15.38;;;-2.40;99.90;;;;;;5050882;28;20040;-64
2021/12/11 02:41:39;;;;;;;30.17;15.05;;;-2.50;99.90;;;;;;4972239;28;20220;-64
2021/12/11 02:44:43;;;;;;;35.53;16.27;;;-2.50;99.90;;;;;;5002817;28;20107;-64
2021/12/11 02:47:21;;;;;;;35.80;15.20;;;-2.50;99.90;;;;;;5027839;28;20080;-65
2021/12/11 02:49:55;;;;;;;35.40;15.68;;;-2.50;99.90;;;;;;5050323;28;20372;-64
2021/12/11 02:52:30;;;;;;;32.83;16.42;;;-2.40;99.90;;;;;;5025524;28;20080;-64
2021/12/11 02:55:12;;;;;;;32.08;15.52;;;-2.40;99.90;;;;;;5030222;28;20106;-64
2021/12/11 02:57:49;;;;;;;41.00;16.33;;;-2.50;99.90;;;;;;5047491;28;20044;-64
2021/12/11 03:00:33;;;;;;;34.97;14.35;;;-2.60;99.90;;;;;;5046395;28;20124;-65
2021/12/11 03:03:05;;;;;;;31.27;15.80;;;-2.60;99.90;;;;;;5048244;28;20541;-64
2021/12/11 03:05:39;;;;;;;30.13;14.38;;;-2.60;99.90;;;;;;5032603;28;20045;-64
2021/12/11 03:08:09;;;;;;;34.53;16.17;;;-2.60;99.90;;;;;;5030212;28;20037;-65
2021/12/11 03:10:35;;;;;;;;;;;-2.70;99.90;;;;;;5032617;28;20045;-66
2021/12/11 03:13:01;;;;;;;30.38;13.32;;;-2.80;99.90;;;;;;5013037;28;19940;-64
2021/12/11 03:15:27;;;;;;;35.40;15.05;;;-2.80;99.90;;;;;;5029554;28;20087;-64
2021/12/11 03:17:53;;;;;;;30.58;13.70;;;-2.80;99.90;;;;;;5027800;28;20377;-65
2021/12/11 03:20:22;;;;;;;29.25;13.57;;;-2.80;99.90;;;;;;5047751;28;20125;-64
2021/12/11 03:22:48;;;;;;;30.10;14.13;;;-2.80;99.90;;;;;;5029470;28;20064;-64
2021/12/11 03:25:18;;;;;;;26.45;14.50;;;-2.80;99.90;;;;;;5027525;28;20047;-64
2021/12/11 03:27:44;;;;;;;;;;;-2.80;99.90;;;;;;5008074;28;20358;-64
2021/12/11 03:30:13;;;;;;;32.13;15.20;;;-2.90;99.90;;;;;;5048229;28;19928;-69
2021/12/11 03:32:39;;;;;;;31.95;15.13;;;-2.80;99.90;;;;;;5028294;28;20393;-65
2021/12/11 03:35:07;;;;;;;36.15;14.88;;;-2.80;99.90;;;;;;5048248;28;20037;-64
2021/12/11 03:37:33;;;;;;;32.00;13.65;;;-2.80;99.90;;;;;;5030392;28;20048;-64
2021/12/11 03:39:59;;;;;;;31.67;14.20;;;-2.70;99.90;;;;;;5048404;28;20040;-64
2021/12/11 03:42:31;;;;;;;31.33;13.25;;;-2.70;99.90;;;;;;5029421;28;20191;-64
2021/12/11 03:45:03;;;;;;;31.35;13.50;;;-2.70;99.90;;;;;;5030010;28;20037;-64
2021/12/11 03:47:35;;;;;;;29.05;13.18;;;-2.70;99.90;;;;;;5027580;28;20141;-65
2021/12/11 03:50:03;;;;;;;32.75;14.30;;;-2.70;99.90;;;;;;5046785;28;20044;-64
2021/12/11 03:52:29;;;;;;;28.70;15.13;;;-2.70;99.90;;;;;;5014418;28;20155;-64
2021/12/11 03:54:55;;;;;;;29.33;14.00;;;-2.70;99.90;;;;;;5048036;28;20084;-64
2021/12/11 03:57:25;;;;;;;32.33;15.05;;;-2.60;99.90;;;;;;5013217;28;20048;-64
2021/12/11 03:59:52;;;;;;;;;;;-2.60;99.90;;;;;;5046840;28;20459;-65
2021/12/11 04:02:22;;;;;;;37.20;17.50;;;-2.50;99.90;;;;;;5027032;28;19920;-64
2021/12/11 04:04:56;;;;;;;40.80;17.35;;;-2.40;99.90;;;;;;5049339;28;20043;-64
2021/12/11 04:07:30;;;;;;;37.80;17.20;;;-2.50;99.90;;;;;;5026580;28;20040;-64
2021/12/11 04:09:56;;;;;;;34.78;15.63;;;-2.50;99.90;;;;;;5048290;28;20041;-64
2021/12/11 04:12:25;;;;;;;34.13;15.10;;;-2.60;99.90;;;;;;5043242;28;20139;-65
2021/12/11 04:14:54;;;;;;;36.93;15.57;;;-2.60;99.90;;;;;;5047677;28;20036;-64
2021/12/11 04:17:22;;;;;;;35.85;15.50;;;-2.60;99.90;;;;;;5046912;28;20115;-64
2021/12/11 04:19:50;;;;;;;34.95;15.85;;;-2.60;99.90;;;;;;5031151;28;20045;-64
2021/12/11 04:22:16;;;;;;;40.03;17.65;;;-2.60;99.90;;;;;;5029568;28;20056;-64
2021/12/11 04:24:44;;;;;;;39.40;15.70;;;-2.60;99.90;;;;;;5029749;28;20572;-64
2021/12/11 04:27:12;;;;;;;38.30;16.38;;;-2.50;99.90;;;;;;5044471;28;20041;-64
2021/12/11 04:29:38;;;;;;;40.25;17.30;;;-2.50;99.90;;;;;;5046693;28;20041;-64
2021/12/11 04:32:04;;;;;;;33.95;15.55;;;-2.50;99.90;;;;;;5030695;28;20051;-64
2021/12/11 04:34:32;;;;;;;36.88;16.95;;;-2.40;99.90;;;;;;5028203;28;20057;-64
2021/12/11 04:37:11;;;;;;;34.90;15.32;;;-2.50;99.90;;;;;;5030115;28;20048;-64
2021/12/11 04:39:38;;;;;;;39.20;17.83;;;-2.40;99.90;;;;;;5029732;28;20127;-65
2021/12/11 04:42:16;;;;;;;38.67;15.68;;;-2.50;99.90;;;;;;5027089;28;20357;-64
2021/12/11 04:44:45;;;;;;;36.08;16.52;;;-2.50;99.90;;;;;;5044500;28;20025;-65
2021/12/11 04:47:32;;;;;;;37.45;15.27;;;-2.60;99.90;;;;;;5022242;28;20059;-64
2021/12/11 04:50:05;;;;;;;29.42;14.02;;;-2.60;99.90;;;;;;5047287;28;20144;-64
2021/12/11 04:52:34;;;;;;;31.02;14.70;;;-2.60;99.90;;;;;;5048079;28;20070;-64
2021/12/11 04:58:03;;;;;;;31.45;14.23;;;-2.80;99.90;;;;;;5047493;28;20049;-64
2021/12/11 05:09:18;;;;;;;30.95;14.90;;;-2.80;99.90;;;;;;5052570;28;20037;-64
2021/12/11 05:12:04;;;;;;;36.15;16.35;;;-2.80;99.90;;;;;;5034545;28;20090;-64
2021/12/11 05:14:30;;;;;;;32.92;14.65;;;-2.70;99.90;;;;;;5033100;28;20045;-65
2021/12/11 05:16:55;;;;;;;33.17;15.52;;;-2.80;99.90;;;;;;5031189;28;20452;-64
2021/12/11 05:19:21;;;;;;;36.38;16.02;;;-2.80;99.90;;;;;;5051725;28;20500;-64
2021/12/11 05:21:47;;;;;;;37.10;15.90;;;-2.80;99.90;;;;;;5033084;28;20346;-64
2021/12/11 05:24:15;;;;;;;37.58;16.63;;;-2.80;99.90;;;;;;5039251;28;20053;-65
2021/12/11 05:26:42;;;;;;;34.33;16.23;;;-2.80;99.90;;;;;;5030747;28;20047;-64
2021/12/11 05:29:07;;;;;;;37.10;17.10;;;-2.80;99.90;;;;;;5045551;28;20141;-66
2021/12/11 05:31:34;;;;;;;37.55;16.67;;;-2.90;99.90;;;;;;5032184;28;20153;-64
2021/12/11 05:34:01;;;;;;;41.65;15.27;;;-2.90;99.90;;;;;;5032632;28;20041;-65
2021/12/11 05:36:31;;;;;;;38.40;17.10;;;-2.90;99.90;;;;;;5050771;28;20064;-64
2021/12/11 05:38:57;;;;;;;37.85;17.23;;;-2.90;99.90;;;;;;5050609;28;20036;-64
2021/12/11 05:41:22;;;;;;;36.58;15.45;;;-3.00;99.90;;;;;;5032247;28;20065;-64
2021/12/11 05:43:50;;;;;;;40.65;16.90;;;-3.00;99.90;;;;;;5048489;28;20033;-64
2021/12/11 05:46:16;;;;;;;35.05;16.20;;;-2.90;99.90;;;;;;5029352;28;20380;-64
2021/12/11 05:48:47;;;;;;;36.33;17.52;;;-2.90;99.90;;;;;;5032555;28;20079;-64
2021/12/11 05:51:18;;;;;;;40.00;16.38;;;-2.90;99.90;;;;;;5034018;28;20087;-64
2021/12/11 05:53:44;;;;;;;34.90;15.48;;;-2.90;99.90;;;;;;5032128;28;20079;-64
2021/12/11 05:56:12;;;;;;;34.47;15.80;;;-3.00;99.90;;;;;;5032616;28;20060;-64
2021/12/11 06:01:31;;;;;;;29.90;13.52;;;-3.10;99.90;;;;;;5029736;28;20053;-64
2021/12/11 06:04:03;;;;;;;31.50;15.18;;;-3.20;99.90;;;;;;5031522;28;20056;-64
2021/12/11 06:06:29;;;;;;;32.10;14.35;;;-3.20;99.90;;;;;;5033606;28;20072;-64
2021/12/11 06:08:55;;;;;;;33.88;14.90;;;-3.20;99.90;;;;;;5030490;28;20501;-64
2021/12/11 06:11:20;;;;;;;35.75;17.05;;;-3.20;99.90;;;;;;5029053;28;20076;-64
2021/12/11 06:13:46;;;;;;;36.85;15.55;;;-3.10;99.90;;;;;;5012479;28;20033;-64
2021/12/11 06:16:14;;;;;;;42.22;16.77;;;-3.20;99.90;;;;;;5050571;28;20045;-64
2021/12/11 06:18:41;;;;;;;34.55;15.68;;;-3.20;99.90;;;;;;5050269;28;20055;-64
2021/12/11 06:21:06;;;;;;;37.83;16.83;;;-3.20;99.90;;;;;;5033095;28;20096;-65
2021/12/11 06:23:32;;;;;;;41.25;16.80;;;-3.20;99.90;;;;;;5029047;28;20437;-64
2021/12/11 06:25:58;;;;;;;38.22;15.65;;;-3.20;99.90;;;;;;5028222;28;20040;-64
2021/12/11 06:28:27;;;;;;;35.30;15.48;;;-3.20;99.90;;;;;;5028378;28;20032;-64
2021/12/11 06:30:57;;;;;;;38.10;17.55;;;-3.30;99.90;;;;;;5032024;28;20501;-64
2021/12/11 06:33:24;;;;;;;37.58;16.70;;;-3.20;99.90;;;;;;5033632;28;20201;-64
2021/12/11 06:35:55;;;;;;;41.58;16.05;;;-3.10;99.90;;;;;;5016373;28;20038;-64
2021/12/11 06:38:26;;;;;;;41.47;15.95;;;-3.10;99.90;;;;;;5031412;28;20788;-64
2021/12/11 06:40:52;;;;;;;45.72;18.05;;;-3.20;99.90;;;;;;5026464;28;20081;-64
2021/12/11 06:43:18;;;;;;;41.45;18.17;;;-3.20;99.90;;;;;;5046719;28;20112;-65
2021/12/11 06:45:47;;;;;;;43.97;17.13;;;-3.20;99.90;;;;;;5048622;28;20437;-64
2021/12/11 06:48:13;;;;;;;35.17;16.60;;;-3.30;99.90;;;;;;5049219;28;20108;-64
2021/12/11 06:50:39;;;;;;;34.88;15.55;;;-3.30;99.90;;;;;;5050274;28;20128;-63
2021/12/11 06:53:10;;;;;;;37.25;16.58;;;-3.30;99.90;;;;;;5028896;28;20111;-64
2021/12/11 06:55:36;;;;;;;39.50;16.60;;;-3.30;99.90;;;;;;5049418;28;20052;-64
2021/12/11 06:58:03;;;;;;;35.70;14.88;;;-3.30;99.90;;;;;;5030699;28;20044;-65
2021/12/11 07:00:29;;;;;;;37.30;15.82;;;-3.30;99.90;;;;;;5030188;28;20048;-64
2021/12/11 07:02:54;;;;;;;34.47;15.70;;;-3.40;99.90;;;;;;5049680;28;20362;-64
2021/12/11 07:05:20;;;;;;;34.47;15.27;;;-3.40;99.90;;;;;;5031868;28;20041;-64
2021/12/11 07:07:46;;;;;;;41.28;16.65;;;-3.40;99.90;;;;;;5031420;28;20025;-64
2021/12/11 07:10:15;;;;;;;37.95;14.82;;;-3.30;99.90;;;;;;5031299;28;20037;-64
2021/12/11 07:12:42;;;;;;;34.28;15.20;;;-3.30;99.90;;;;;;5029266;28;20040;-63
2021/12/11 07:15:10;;;;;;;37.70;15.27;;;-3.30;99.90;;;;;;5031043;28;20049;-64
2021/12/11 07:17:36;;;;;;;43.58;17.70;;;-3.30;99.90;;;;;;5048742;28;20072;-65
2021/12/11 07:20:05;;;;;;;43.10;19.20;;;-3.30;99.90;;;;;;5031644;28;20051;-64
2021/12/11 07:22:30;;;;;;;43.28;18.58;;;-3.10;99.90;;;;;;5032332;28;20155;-64
2021/12/11 07:25:05;;;;;;;36.35;18.65;;;-3.10;99.90;;;;;;5044551;28;20136;-64
2021/12/11 07:27:31;;;;;;;42.28;18.23;;;-3.20;99.90;;;;;;5030516;28;20548;-63
2021/12/11 07:29:57;;;;;;;38.30;16.40;;;-3.30;99.90;;;;;;5048301;28;20094;-64
2021/12/11 07:32:23;;;;;;;31.05;14.65;;;-3.30;99.90;;;;;;5032737;28;20120;-64
2021/12/11 07:34:48;;;;;;;33.95;15.65;;;-3.30;99.90;;;;;;5032413;28;20051;-64
2021/12/11 07:37:16;;;;;;;31.35;14.75;;;-3.40;99.90;;;;;;5050762;28;20041;-64
2021/12/11 07:39:41;;;;;;;33.55;16.15;;;-3.40;99.90;;;;;;5032255;28;20561;-64
2021/12/11 07:42:07;;;;;;;31.13;15.10;;;-3.40;99.90;;;;;;5028791;28;20049;-64
2021/12/11 07:44:33;;;;;;;30.70;15.30;;;-3.40;99.90;;;;;;5048890;28;20106;-64
2021/12/11 07:47:00;;;;;;;28.10;14.73;;;-3.40;99.90;;;;;;5031472;28;20047;-64
2021/12/11 07:49:26;;;;;;;32.78;14.82;;;-3.40;99.90;;;;;;5032208;28;20037;-64
2021/12/11 07:51:52;;;;;;;38.00;14.52;;;-3.40;99.90;;;;;;5031745;28;20055;-63
2021/12/11 07:54:18;;;;;;;37.47;14.73;;;-3.30;99.90;;;;;;5031767;28;20043;-64
2021/12/11 07:56:44;;;;;;;37.83;16.05;;;-3.30;99.90;;;;;;5023897;28;20038;-64
2021/12/11 07:59:10;;;;;;;31.55;14.10;;;-3.30;99.90;;;;;;5045383;28;20055;-64
2021/12/11 08:01:41;;;;;;;34.97;14.65;;;-3.40;99.90;;;;;;5026683;28;20389;-64
2021/12/11 08:04:08;;;;;;;27.50;14.18;;;-3.40;99.90;;;;;;5018536;28;20080;-64
2021/12/11 08:06:35;;;;;;;30.23;13.52;;;-3.40;99.90;;;;;;5029323;28;20048;-64
2021/12/11 08:09:07;;;;;;;31.52;14.82;;;-3.40;99.90;;;;;;5031405;28;20037;-64
2021/12/11 08:11:34;;;;;;;37.90;16.58;;;-3.40;99.90;;;;;;5010414;28;20108;-64
2021/12/11 08:14:00;;;;;;;41.50;16.67;;;-3.20;99.90;;;;;;5020917;28;20041;-64
2021/12/11 08:16:33;;;;;;;35.90;16.30;;;-3.00;99.90;;;;;;5030761;28;20045;-64
2021/12/11 08:19:04;;;;;;;47.33;19.35;;;-3.00;99.90;;;;;;5050802;28;20049;-64
2021/12/11 08:21:29;;;;;;;46.85;20.30;;;-2.90;99.90;;;;;;5031599;28;20135;-64
2021/12/11 08:23:56;;;;;;;46.63;19.25;;;-2.80;99.90;;;;;;5031483;28;20206;-64
2021/12/11 08:26:25;;;;;;;47.38;19.10;;;-2.80;99.90;;;;;;5031384;28;20114;-64
2021/12/11 08:28:52;;;;;;;44.17;19.33;;;-2.80;99.90;;;;;;5011660;28;20033;-64
2021/12/11 08:31:20;;;;;;;47.80;20.85;;;-2.80;99.90;;;;;;5029803;28;20165;-64
2021/12/11 08:33:46;;;;;;;52.33;19.58;;;-2.70;99.90;;;;;;5032096;28;20043;-64
2021/12/11 08:36:13;;;;;;;49.47;21.08;;;-2.60;99.90;;;;;;5031646;28;20055;-64
2021/12/11 08:38:41;;;;;;;51.95;21.55;;;-2.60;99.90;;;;;;5030269;28;20041;-64
2021/12/11 08:41:09;;;;;;;51.65;22.85;;;-2.60;99.90;;;;;;5030543;28;20054;-64
2021/12/11 08:43:35;;;;;;;56.40;23.10;;;-2.50;99.90;;;;;;5031117;28;20048;-64
2021/12/11 08:46:11;;;;;;;48.03;22.38;;;-2.40;99.90;;;;;;5029702;28;20064;-64
2021/12/11 08:48:46;;;;;;;58.92;22.15;;;-2.20;99.90;;;;;;5048395;28;20041;-64
2021/12/11 08:51:24;;;;;;;51.42;21.10;;;-2.20;99.90;;;;;;5031352;28;20040;-64
2021/12/11 08:53:50;;;;;;;45.33;20.25;;;-2.10;99.90;;;;;;5030801;28;20045;-64
2021/12/11 08:56:16;;;;;;;52.35;20.85;;;-2.10;99.90;;;;;;5030273;28;20064;-65
2021/12/11 08:58:45;;;;;;;47.83;22.17;;;-2.10;99.90;;;;;;5028086;28;20333;-64
2021/12/11 09:01:16;;;;;;;51.28;22.60;;;-2.10;99.90;;;;;;5029829;28;20135;-64
2021/12/11 09:03:57;;;;;;;54.42;24.58;;;-2.00;99.90;;;;;;5031560;28;20052;-64
2021/12/11 09:06:47;;;;;;;61.15;25.80;;;-1.90;99.90;;;;;;5031122;28;20152;-64
2021/12/11 09:09:16;;;;;;;;;;;-1.70;99.90;;;;;;5014404;28;20056;-65
2021/12/11 09:11:56;;;;;;;64.00;26.50;;;-1.60;99.90;;;;;;5030701;28;19925;-65
2021/12/11 09:14:38;;;;;;;54.45;24.42;;;-1.60;99.90;;;;;;5029095;28;20151;-64
2021/12/11 09:17:10;;;;;;;56.25;22.50;;;-1.50;99.90;;;;;;5029075;28;20072;-65
2021/12/11 09:19:35;;;;;;;58.08;25.65;;;-1.50;99.90;;;;;;5031468;28;20086;-64
2021/12/11 09:22:10;;;;;;;58.80;24.30;;;-1.50;99.90;;;;;;5030843;28;20045;-64
2021/12/11 09:24:49;;;;;;;60.65;25.30;;;-1.40;99.90;;;;;;5028428;28;20121;-65
2021/12/11 09:27:40;;;;;;;66.88;26.50;;;-1.30;99.90;;;;;;5028944;28;20047;-65
2021/12/11 09:30:20;;;;;;;57.92;24.73;;;-1.20;99.90;;;;;;5027712;28;20068;-65
2021/12/11 09:32:57;;;;;;;56.67;23.70;;;-1.00;99.90;;;;;;5009030;28;20128;-65
2021/12/11 09:35:32;;;;;;;61.42;25.90;;;-0.90;99.90;;;;;;5027194;28;20068;-64
2021/12/11 09:38:06;;;;;;;65.03;26.08;;;-0.80;99.90;;;;;;5048851;28;20140;-64
2021/12/11 09:40:35;;;;;;;71.25;28.90;;;-0.70;99.90;;;;;;5034335;28;20076;-65
2021/12/11 09:43:01;;;;;;;74.32;27.88;;;-0.60;99.90;;;;;;5050288;28;20128;-65
2021/12/11 09:45:36;;;;;;;69.28;28.90;;;-0.40;99.90;;;;;;5032837;28;20037;-64
2021/12/11 09:48:17;;;;;;;68.85;29.38;;;-0.30;99.90;;;;;;5034394;28;20044;-65
2021/12/11 09:51:00;;;;;;;76.13;28.10;;;-0.20;99.90;;;;;;5034938;28;20129;-65
2021/12/11 09:53:29;;;;;;;87.72;31.98;;;-0.10;99.90;;;;;;5033080;28;20075;-65
2021/12/11 09:55:56;;;;;;;83.45;30.00;;;0.10;99.90;;;;;;5031502;28;20128;-65
2021/12/11 09:58:28;;;;;;;79.93;31.95;;;0.20;99.90;;;;;;5031642;28;20041;-65
2021/12/11 10:01:03;;;;;;;74.75;31.48;;;0.40;99.90;;;;;;5051215;28;20127;-65
2021/12/11 10:03:31;;;;;;;68.72;28.70;;;0.50;99.90;;;;;;5052259;28;20398;-65
2021/12/11 10:06:27;;;;;;;73.85;28.58;;;0.50;99.90;;;;;;5034049;28;20377;-65
2021/12/11 10:09:08;;;;;;;72.43;28.88;;;0.50;99.90;;;;;;5034237;28;20037;-65
2021/12/11 10:11:35;;;;;;;59.55;27.27;;;0.60;99.90;;;;;;5033215;28;20048;-65
2021/12/11 10:14:09;;;;;;;73.95;32.53;;;0.60;99.90;;;;;;5031692;28;20087;-65
2021/12/11 10:16:41;;;;;;;67.63;28.38;;;0.60;99.90;;;;;;5050865;28;20053;-66
2021/12/11 10:19:11;;;;;;;74.95;31.17;;;0.80;99.90;;;;;;5034310;28;20040;-66
2021/12/11 10:21:46;;;;;;;72.50;31.17;;;0.80;99.90;;;;;;5017193;28;20060;-66
2021/12/11 10:24:16;;;;;;;75.28;31.35;;;0.90;99.90;;;;;;5050881;28;20138;-66
2021/12/11 10:26:42;;;;;;;;;;;0.90;99.90;;;;;;5033470;28;20524;-67
2021/12/11 10:29:10;;;;;;;67.30;30.08;;;0.90;99.90;;;;;;5047618;28;19916;-66
2021/12/11 10:31:53;;;;;;;65.80;30.10;;;0.90;99.90;;;;;;5025487;28;20071;-67
2021/12/11 10:34:21;;;;;;;61.67;28.00;;;1.10;99.90;;;;;;5017298;28;20041;-67
2021/12/11 10:36:53;;;;;;;63.83;28.20;;;1.10;99.90;;;;;;5031375;28;20028;-67
2021/12/11 10:39:19;;;;;;;59.22;25.38;;;1.10;99.90;;;;;;5032567;28;20052;-66
2021/12/11 10:41:45;;;;;;;56.60;26.98;;;1.20;99.90;;;;;;5048866;28;20113;-67
2021/12/11 10:44:20;;;;;;;55.13;25.88;;;1.30;99.90;;;;;;5028341;28;20041;-67
2021/12/11 10:46:51;;;;;;;53.42;25.27;;;1.40;99.90;;;;;;5042420;28;20037;-66
2021/12/11 10:49:18;;;;;;;56.20;24.77;;;1.50;99.90;;;;;;5049015;28;20532;-66
2021/12/11 10:51:52;;;;;;;55.58;26.38;;;1.50;99.90;;;;;;5049279;28;20485;-66
2021/12/11 10:54:19;;;;;;;58.47;25.35;;;1.50;99.90;;;;;;5007054;28;20089;-66
2021/12/11 10:56:45;;;;;;;52.67;25.45;;;1.60;99.90;;;;;;5026343;28;20400;-67
2021/12/11 10:59:26;;;;;;;54.95;26.35;;;1.60;99.90;;;;;;5027974;28;20049;-66
2021/12/11 11:01:57;;;;;;;54.78;25.27;;;1.70;99.90;;;;;;5029463;28;20052;-66
2021/12/11 11:04:24;;;;;;;;;;;1.80;99.90;;;;;;5025196;28;20048;-67
2021/12/11 11:06:50;;;;;;;52.42;23.50;;;1.80;99.90;;;;;;5023536;28;19959;-66
2021/12/11 11:09:19;;;;;;;51.60;24.58;;;1.90;99.90;;;;;;5024698;28;20048;-66
2021/12/11 11:11:46;;;;;;;52.33;24.25;;;2.00;99.90;;;;;;5025099;28;20396;-66
2021/12/11 11:14:12;;;;;;;51.63;24.35;;;2.00;99.90;;;;;;5030567;28;20033;-66
2021/12/11 11:16:42;;;;;;;53.25;24.45;;;2.00;99.90;;;;;;5027121;28;20139;-66
2021/12/11 11:19:08;;;;;;;50.78;23.88;;;2.10;99.90;;;;;;5012000;28;20622;-66
2021/12/11 11:21:41;;;;;;;53.90;24.17;;;2.10;99.90;;;;;;5043439;28;20132;-66
2021/12/11 11:24:07;;;;;;;58.67;26.02;;;2.20;99.90;;;;;;5027316;28;20052;-66
2021/12/11 11:26:37;;;;;;;45.80;22.75;;;2.30;99.90;;;;;;5011697;28;20037;-66
2021/12/11 11:29:07;;;;;;;44.55;23.05;;;2.30;99.90;;;;;;5024917;28;20079;-66
2021/12/11 11:31:36;;;;;;;48.90;22.13;;;2.30;99.90;;;;;;5030637;28;20064;-66
2021/12/11 11:34:08;;;;;;;52.63;23.65;;;2.40;99.90;;;;;;5032203;28;20510;-66
2021/12/11 11:36:35;;;;;;;51.88;22.98;;;2.50;99.90;;;;;;5032431;28;20198;-67
2021/12/11 11:39:05;;;;;;;50.83;23.50;;;2.50;99.90;;;;;;5028604;28;20033;-65
2021/12/11 11:41:35;;;;;;;49.05;22.48;;;2.60;99.90;;;;;;5030533;28;20353;-66
2021/12/11 11:44:02;;;;;;;50.72;23.60;;;2.70;99.90;;;;;;5029276;28;20065;-66
2021/12/11 11:46:28;;;;;;;50.58;24.73;;;2.70;99.90;;;;;;5030900;28;20137;-66
2021/12/11 11:49:00;;;;;;;50.10;23.42;;;2.80;99.90;;;;;;5049169;28;20740;-66
2021/12/11 11:51:29;;;;;;;48.17;23.58;;;2.80;99.90;;;;;;5050614;28;20040;-65
2021/12/11 11:53:55;;;;;;;46.65;22.65;;;2.90;99.90;;;;;;5032248;28;20045;-66
2021/12/11 11:56:27;;;;;;;50.45;23.27;;;3.00;99.90;;;;;;5031402;28;20036;-66
2021/12/11 11:58:53;;;;;;;47.03;21.75;;;3.00;99.90;;;;;;5047717;28;20048;-67
2021/12/11 12:01:23;;;;;;;49.28;22.55;;;3.20;99.90;;;;;;5031264;28;20041;-66
2021/12/11 12:03:49;;;;;;;47.85;23.80;;;3.20;99.90;;;;;;5031833;28;20123;-66
2021/12/11 12:06:23;;;;;;;46.97;21.33;;;3.30;99.90;;;;;;5030683;28;20105;-66
2021/12/11 12:08:50;;;;;;;47.75;23.77;;;3.40;99.90;;;;;;5045570;28;20041;-66
2021/12/11 12:11:16;;;;;;;46.90;20.98;;;3.40;99.90;;;;;;5047033;28;20065;-67
2021/12/11 12:13:42;;;;;;;43.78;21.02;;;3.50;99.90;;;;;;5018821;28;20032;-65
2021/12/11 12:16:12;;;;;;;45.28;21.40;;;3.50;99.90;;;;;;5030940;28;20094;-66
2021/12/11 12:18:41;;;;;;;45.92;20.73;;;3.40;99.90;;;;;;5030252;28;20041;-66
2021/12/11 12:21:10;;;;;;;41.10;20.00;;;3.60;99.90;;;;;;5029779;28;20365;-66
2021/12/11 12:23:37;;;;;;;48.83;22.20;;;3.70;99.90;;;;;;5029325;28;20152;-67
2021/12/11 12:26:11;;;;;;;45.28;21.20;;;3.80;99.90;;;;;;5030305;28;20041;-66
2021/12/11 12:28:38;;;;;;;45.30;20.70;;;4.00;99.90;;;;;;5041554;28;20048;-66
2021/12/11 12:31:13;;;;;;;39.88;19.70;;;4.10;99.90;;;;;;5042997;28;20048;-67
2021/12/11 12:33:40;;;;;;;43.00;19.00;;;4.30;99.90;;;;;;5031933;28;20056;-66
2021/12/11 12:36:07;;;;;;;43.45;19.75;;;4.40;99.90;;;;;;5031895;28;20063;-65
2021/12/11 12:38:33;;;;;;;42.45;18.63;;;4.30;99.90;;;;;;5031334;28;20037;-66
2021/12/11 12:41:12;;;;;;;39.08;19.40;;;4.40;99.90;;;;;;5029856;28;20080;-67
2021/12/11 12:46:31;;;;;;;38.78;19.92;;;4.30;99.90;;;;;;5030067;28;20041;-66
2021/12/11 12:48:59;;;;;;;43.28;20.48;;;4.20;99.90;;;;;;5032262;28;20041;-67
2021/12/11 12:51:27;;;;;;;41.50;20.00;;;4.10;99.90;;;;;;5031363;28;20029;-66
2021/12/11 12:53:56;;;;;;;42.70;19.13;;;4.10;99.90;;;;;;5041468;28;20140;-67
2021/12/11 12:56:28;;;;;;;41.63;18.73;;;4.10;99.90;;;;;;5024895;28;20384;-67
2021/12/11 12:59:00;;;;;;;37.25;19.65;;;4.10;99.90;;;;;;5009588;28;20389;-67
2021/12/11 13:01:34;;;;;;;44.08;21.13;;;4.10;99.90;;;;;;5014878;28;20079;-67
2021/12/11 13:04:05;;;;;;;43.47;19.48;;;4.10;99.90;;;;;;5032283;28;20080;-67
2021/12/11 13:06:38;;;;;;;43.70;20.65;;;4.10;99.90;;;;;;5044523;28;20052;-67